Time;durP1;ratioP1;P1;durP2;ratioP2;P2;SDS_P1;SDS_P2;PMS_P1;PMS_P2;Temp;Humidity;BMP_temperature;BMP_pressure;BME280_temperature;BME280_humidity;BME280_pressure;Samples;Min_cycle;Max_cycle;Signal;HPM_P1;HPM_P2
2024/02/10 00:01:27;;;;;;;7.05;4.00;;;;;;;12.47;80.21;97284.97;4138251;28;20073;-74
2024/02/10 00:03:29;;;;;;;5.82;3.75;;;;;;;12.51;80.01;97284.53;4137786;28;20033;-72
2024/02/10 00:05:30;;;;;;;8.80;5.90;;;;;;;12.56;79.70;97282.81;4143550;28;20027;-72
2024/02/10 00:07:32;;;;;;;8.55;5.22;;;;;;;12.48;80.28;97280.41;4144470;28;20109;-72
2024/02/10 00:09:35;;;;;;;7.05;4.63;;;;;;;12.49;80.35;97287.41;4148238;28;20424;-74
2024/02/10 00:11:38;;;;;;;8.20;4.65;;;;;;;12.42;80.41;97275.97;4130714;28;20029;-74
2024/02/10 00:13:41;;;;;;;5.93;3.92;;;;;;;12.44;80.11;97271.22;4130963;28;20534;-74
2024/02/10 00:15:42;;;;;;;5.65;3.33;;;;;;;12.46;80.02;97275.28;4130535;28;20023;-72
2024/02/10 00:17:42;;;;;;;5.32;3.13;;;;;;;12.49;79.88;97271.34;4130464;28;20277;-72
2024/02/10 00:19:48;;;;;;;4.63;2.67;;;;;;;12.56;79.55;97272.09;4129967;28;20038;-73
2024/02/10 00:21:48;;;;;;;5.82;3.38;;;;;;;12.49;79.95;97268.66;4130853;28;20033;-72
2024/02/10 00:23:49;;;;;;;6.13;3.33;;;;;;;12.50;80.01;97266.81;4130922;28;20018;-73
2024/02/10 00:25:49;;;;;;;5.00;3.03;;;;;;;12.36;80.35;97266.16;4130853;28;20053;-73
2024/02/10 00:27:51;;;;;;;5.97;3.60;;;;;;;12.34;80.39;97269.03;4130182;28;20027;-72
2024/02/10 00:29:52;;;;;;;5.47;3.22;;;;;;;12.31;80.68;97262.28;4131076;28;20085;-73
2024/02/10 00:31:53;;;;;;;5.75;3.20;;;;;;;12.41;79.99;97275.16;4134221;28;20470;-73
2024/02/10 00:33:56;;;;;;;5.43;3.20;;;;;;;12.43;79.83;97272.25;4132990;28;20038;-73
2024/02/10 00:35:56;;;;;;;6.88;3.42;;;;;;;12.34;80.30;97263.69;4133477;28;20054;-73
2024/02/10 00:37:57;;;;;;;4.82;2.83;;;;;;;12.37;80.28;97262.44;4134311;28;20367;-72
2024/02/10 00:39:58;;;;;;;4.38;2.50;;;;;;;12.45;79.93;97264.81;4134454;28;20026;-73
2024/02/10 00:41:59;;;;;;;5.65;2.92;;;;;;;12.55;79.67;97274.97;4134013;28;20030;-73
2024/02/10 00:44:00;;;;;;;4.40;2.30;;;;;;;12.55;79.64;97277.66;4134192;28;20030;-73
2024/02/10 00:46:00;;;;;;;4.40;2.25;;;;;;;12.57;79.29;97276.38;4140294;28;20038;-73
2024/02/10 00:48:02;;;;;;;4.47;2.30;;;;;;;12.60;79.19;97273.25;4148342;28;20026;-73
2024/02/10 00:50:03;;;;;;;4.55;2.60;;;;;;;12.60;79.29;97278.63;4149240;28;20026;-73
2024/02/10 00:52:05;;;;;;;5.60;2.38;;;;;;;12.64;79.19;97279.00;4149412;28;20381;-73
2024/02/10 00:54:05;;;;;;;4.10;1.90;;;;;;;12.71;78.71;97271.66;4164022;28;20026;-73
2024/02/10 00:56:11;;;;;;;3.83;1.90;;;;;;;12.73;78.82;97271.47;4147960;28;20033;-72
2024/02/10 00:58:12;;;;;;;3.78;2.15;;;;;;;12.71;78.86;97269.00;4162207;28;20025;-73
2024/02/10 01:00:16;;;;;;;4.57;2.88;;;;;;;12.63;78.91;97270.16;4143848;28;20026;-73
2024/02/10 01:02:19;;;;;;;5.00;2.80;;;;;;;12.52;79.56;97265.53;4160146;28;20042;-74
2024/02/10 01:04:20;;;;;;;5.95;3.70;;;;;;;12.54;79.60;97263.47;4143431;28;20028;-73
2024/02/10 01:06:21;;;;;;;4.50;2.50;;;;;;;12.53;79.38;97267.19;4143689;28;20018;-74
2024/02/10 01:08:22;;;;;;;4.85;2.90;;;;;;;12.57;79.45;97262.19;4141871;28;20026;-74
2024/02/10 01:10:23;;;;;;;4.88;2.58;;;;;;;12.58;79.15;97253.91;4144574;28;20048;-74
2024/02/10 01:12:23;;;;;;;4.25;2.58;;;;;;;12.53;79.65;97251.09;4144368;28;20494;-74
2024/02/10 01:14:29;;;;;;;3.90;2.28;;;;;;;12.52;79.60;97254.81;4158298;28;20125;-73
2024/02/10 01:16:31;;;;;;;7.10;2.70;;;;;;;12.56;79.19;97250.66;4142781;28;20440;-73
2024/02/10 01:18:33;;;;;;;4.50;2.60;;;;;;;12.53;79.25;97260.97;4143091;28;20458;-74
2024/02/10 01:20:33;;;;;;;4.93;2.88;;;;;;;12.49;79.36;97257.94;4155152;28;20022;-74
2024/02/10 01:22:34;;;;;;;4.80;3.00;;;;;;;12.49;79.05;97255.25;4144372;28;20098;-74
2024/02/10 01:24:35;;;;;;;4.70;2.90;;;;;;;12.49;79.06;97255.25;4144534;28;20026;-73
2024/02/10 01:26:36;;;;;;;6.70;3.30;;;;;;;12.44;79.52;97253.25;4158480;28;20018;-74
2024/02/10 01:28:37;;;;;;;6.50;3.92;;;;;;;12.45;79.41;97262.94;4139207;28;20069;-74
2024/02/10 01:30:37;;;;;;;5.72;3.90;;;;;;;12.41;79.51;97251.06;4140108;28;20085;-75
2024/02/10 01:32:37;;;;;;;6.45;3.45;;;;;;;12.39;79.73;97252.28;4139081;28;20030;-75
2024/02/10 01:34:39;;;;;;;5.45;3.50;;;;;;;12.46;79.07;97250.38;4139921;28;20066;-74
2024/02/10 01:36:39;;;;;;;;;;;;;;;12.45;79.26;97240.69;4140272;28;20023;-74
2024/02/10 01:38:44;;;;;;;5.20;3.27;;;;;;;12.35;79.68;97248.44;4139130;28;20363;-74
2024/02/10 01:40:45;;;;;;;6.75;3.25;;;;;;;12.29;79.87;97253.63;4137003;28;20041;-74
2024/02/10 01:42:45;;;;;;;6.78;3.60;;;;;;;12.23;80.15;97245.72;4134620;28;20453;-74
2024/02/10 01:44:46;;;;;;;6.72;3.40;;;;;;;12.32;79.87;97236.31;4132319;28;20117;-74
2024/02/10 01:46:47;;;;;;;8.30;3.92;;;;;;;12.32;79.73;97233.66;4133724;28;20057;-74
2024/02/10 01:48:49;;;;;;;6.55;4.10;;;;;;;12.26;79.85;97231.84;4133655;28;20162;-74
2024/02/10 01:50:50;;;;;;;6.22;4.38;;;;;;;12.14;80.77;97226.44;4133326;28;20023;-74
2024/02/10 01:52:51;;;;;;;6.28;4.28;;;;;;;12.12;80.71;97228.50;4132615;28;20498;-74
2024/02/10 01:54:51;;;;;;;6.32;4.60;;;;;;;11.99;81.03;97226.81;4132851;28;20026;-74
2024/02/10 01:56:53;;;;;;;7.63;5.05;;;;;;;11.88;81.65;97228.34;4132802;28;20064;-74
2024/02/10 01:58:56;;;;;;;7.15;4.63;;;;;;;11.94;81.33;97227.44;4130676;28;20057;-74
2024/02/10 02:00:57;;;;;;;5.38;3.65;;;;;;;11.98;81.38;97217.13;4130640;28;21463;-74
2024/02/10 02:03:01;;;;;;;5.95;3.95;;;;;;;12.08;80.77;97213.94;4131639;28;20042;-74
2024/02/10 02:05:04;;;;;;;5.90;3.72;;;;;;;12.11;80.54;97216.16;4132067;28;20422;-74
2024/02/10 02:07:08;;;;;;;5.68;3.70;;;;;;;12.11;80.84;97211.63;4131947;28;20483;-75
2024/02/10 02:09:10;;;;;;;4.85;2.80;;;;;;;12.16;80.74;97205.59;4131811;28;20344;-74
2024/02/10 02:11:11;;;;;;;5.10;2.95;;;;;;;12.19;80.81;97202.47;4146856;28;20026;-75
2024/02/10 02:13:11;;;;;;;6.75;3.53;;;;;;;12.15;80.84;97203.97;4132144;28;20033;-74
2024/02/10 02:15:12;;;;;;;6.80;3.97;;;;;;;12.23;80.46;97192.94;4131979;28;20030;-75
2024/02/10 02:17:12;;;;;;;5.55;3.90;;;;;;;12.21;80.73;97197.69;4131939;28;20475;-74
2024/02/10 02:19:13;;;;;;;5.72;3.65;;;;;;;12.22;80.57;97185.94;4130550;28;20057;-74
2024/02/10 02:21:14;;;;;;;;;;;;;;;12.10;80.81;97185.06;4132880;28;20383;-74
2024/02/10 02:23:18;;;;;;;7.20;4.50;;;;;;;12.10;81.03;97185.06;4147074;28;19909;-74
2024/02/10 02:25:19;;;;;;;6.20;4.07;;;;;;;12.12;81.12;97182.97;4132064;28;20030;-75
2024/02/10 02:27:19;;;;;;;6.00;3.50;;;;;;;12.21;80.87;97178.16;4133765;28;20030;-74
2024/02/10 02:29:20;;;;;;;6.78;4.05;;;;;;;12.31;80.30;97179.25;4134107;28;20037;-74
2024/02/10 02:31:20;;;;;;;5.47;3.35;;;;;;;12.26;80.68;97175.59;4137824;28;20030;-74
2024/02/10 02:33:21;;;;;;;5.90;4.13;;;;;;;12.23;80.58;97171.53;4137082;28;20103;-74
2024/02/10 02:35:21;;;;;;;5.50;3.88;;;;;;;12.23;80.71;97174.19;4137941;28;20026;-74
2024/02/10 02:37:22;;;;;;;5.73;3.97;;;;;;;12.26;80.64;97165.72;4138733;28;20038;-74
2024/02/10 02:39:23;;;;;;;5.85;3.58;;;;;;;12.28;80.65;97168.97;4142097;28;20848;-74
2024/02/10 02:41:24;;;;;;;7.43;4.93;;;;;;;12.26;80.81;97162.22;4154205;28;20031;-74
2024/02/10 02:43:26;;;;;;;6.32;4.20;;;;;;;12.37;80.41;97163.31;4153398;28;20031;-74
2024/02/10 02:45:27;;;;;;;8.55;5.07;;;;;;;12.25;80.03;97156.06;4141156;28;20035;-74
2024/02/10 02:47:28;;;;;;;6.05;4.38;;;;;;;12.22;80.19;97151.13;4131045;28;20029;-74
2024/02/10 02:49:28;;;;;;;8.00;5.22;;;;;;;12.21;80.43;97152.19;4131741;28;20442;-74
2024/02/10 02:51:29;;;;;;;7.32;5.03;;;;;;;12.20;80.02;97142.50;4140985;28;20026;-75
2024/02/10 02:53:31;;;;;;;7.15;5.00;;;;;;;12.17;80.44;97140.28;4134305;28;20487;-74
2024/02/10 02:55:32;;;;;;;7.57;5.25;;;;;;;12.02;81.22;97143.38;4129998;28;20033;-73
2024/02/10 02:57:33;;;;;;;8.38;5.80;;;;;;;11.83;82.14;97150.53;4131292;28;20019;-75
2024/02/10 02:59:34;;;;;;;7.20;5.53;;;;;;;11.90;81.50;97153.16;4129319;28;20454;-73
2024/02/10 03:01:34;;;;;;;7.93;5.15;;;;;;;12.04;80.74;97141.28;4129356;28;20051;-74
2024/02/10 03:03:34;;;;;;;7.88;5.18;;;;;;;12.18;80.07;97147.28;4131328;28;20026;-74
2024/02/10 03:05:35;;;;;;;7.50;5.15;;;;;;;12.12;80.00;97140.13;4130129;28;20511;-74
2024/02/10 03:07:40;;;;;;;7.43;4.53;;;;;;;12.10;80.60;97136.88;4131302;28;20105;-74
2024/02/10 03:09:44;;;;;;;7.78;4.63;;;;;;;12.10;80.46;97135.03;4130029;28;20026;-74
2024/02/10 03:11:45;;;;;;;9.88;5.93;;;;;;;12.06;80.13;97127.66;4131449;28;20530;-75
2024/02/10 03:13:48;;;;;;;7.97;5.32;;;;;;;11.98;80.76;97121.59;4130911;28;20034;-74
2024/02/10 03:15:50;;;;;;;8.98;5.20;;;;;;;12.04;80.72;97129.75;4130898;28;20549;-74
2024/02/10 03:17:50;;;;;;;8.43;5.65;;;;;;;11.95;81.09;97130.03;4129425;28;20098;-74
2024/02/10 03:19:51;;;;;;;7.88;5.45;;;;;;;12.04;80.56;97119.03;4134028;28;20034;-74
2024/02/10 03:21:52;;;;;;;;;;;;;;;11.94;81.60;97114.19;4136753;28;20026;-74
2024/02/10 03:23:52;;;;;;;6.90;4.77;;;;;;;12.01;80.67;97123.78;4132137;28;19936;-74
2024/02/10 03:25:56;;;;;;;6.60;4.80;;;;;;;12.07;80.53;97129.31;4130988;28;20100;-74
2024/02/10 03:27:57;;;;;;;7.40;5.05;;;;;;;12.21;79.78;97125.41;4130570;28;20088;-74
2024/02/10 03:30:00;;;;;;;6.78;4.70;;;;;;;12.18;79.93;97125.88;4129505;28;20131;-74
2024/02/10 03:32:03;;;;;;;7.15;4.97;;;;;;;12.17;80.07;97119.69;4130882;28;20467;-74
2024/02/10 03:34:04;;;;;;;7.60;5.57;;;;;;;12.13;79.86;97123.03;4130761;28;20037;-74
2024/02/10 03:36:05;;;;;;;7.60;5.60;;;;;;;12.06;80.17;97122.31;4129496;28;20026;-75
2024/02/10 03:38:07;;;;;;;8.35;5.38;;;;;;;12.02;80.21;97125.44;4129039;28;20054;-74
2024/02/10 03:40:14;;;;;;;8.20;5.35;;;;;;;12.00;80.21;97124.81;4129276;28;20029;-75
2024/02/10 03:42:14;;;;;;;7.20;4.57;;;;;;;12.09;79.71;97117.31;4130722;28;20023;-73
2024/02/10 03:44:15;;;;;;;6.68;4.38;;;;;;;12.16;79.66;97117.25;4130565;28;20539;-74
2024/02/10 03:46:16;;;;;;;7.30;4.82;;;;;;;12.16;79.86;97117.25;4129353;28;20042;-75
2024/02/10 03:48:17;;;;;;;10.63;6.40;;;;;;;12.04;80.13;97113.69;4130372;28;20026;-74
2024/02/10 03:50:18;;;;;;;11.50;6.38;;;;;;;11.90;80.81;97113.84;4130816;28;20148;-74
2024/02/10 03:52:18;;;;;;;7.85;5.78;;;;;;;11.88;80.89;97113.25;4129681;28;20558;-75
2024/02/10 03:54:18;;;;;;;7.70;5.13;;;;;;;12.03;80.42;97112.88;4130930;28;20029;-74
2024/02/10 03:56:21;;;;;;;6.68;4.80;;;;;;;12.04;80.17;97108.31;4131307;28;20023;-75
2024/02/10 03:58:24;;;;;;;7.70;4.35;;;;;;;12.04;80.21;97102.97;4130066;28;20475;-73
2024/02/10 04:00:26;;;;;;;7.80;5.15;;;;;;;11.99;80.56;97101.81;4130837;28;20034;-74
2024/02/10 04:02:26;;;;;;;7.28;5.15;;;;;;;12.02;80.47;97100.53;4130412;28;20125;-74
2024/02/10 04:04:28;;;;;;;8.80;5.35;;;;;;;12.07;80.21;97103.34;4130462;28;20045;-74
2024/02/10 04:06:28;;;;;;;9.23;6.45;;;;;;;11.94;80.55;97090.91;4130230;28;20030;-75
2024/02/10 04:08:29;;;;;;;9.93;6.60;;;;;;;11.97;80.57;97095.00;4130698;28;20076;-74
2024/02/10 04:10:29;;;;;;;8.57;6.07;;;;;;;12.06;80.25;97090.97;4131477;28;20030;-74
2024/02/10 04:12:30;;;;;;;9.07;6.55;;;;;;;12.04;80.69;97093.09;4134257;28;20026;-74
2024/02/10 04:14:30;;;;;;;8.73;6.25;;;;;;;12.01;80.62;97094.34;4137258;28;20173;-73
2024/02/10 04:16:31;;;;;;;9.88;6.88;;;;;;;11.99;81.03;97090.25;4137294;28;20097;-74
2024/02/10 04:18:32;;;;;;;9.87;7.17;;;;;;;12.01;80.74;97094.34;4137981;28;20117;-74
2024/02/10 04:20:32;;;;;;;9.73;6.78;;;;;;;12.00;81.14;97094.56;4138085;28;20276;-74
2024/02/10 04:22:38;;;;;;;8.00;5.95;;;;;;;12.07;80.73;97097.19;4139024;28;20057;-74
2024/02/10 04:24:38;;;;;;;9.38;6.60;;;;;;;12.02;80.38;97100.53;4139458;28;20030;-74
2024/02/10 04:26:40;;;;;;;7.80;5.93;;;;;;;12.02;80.34;97100.53;4137811;28;20026;-74
2024/02/10 04:28:41;;;;;;;8.15;5.68;;;;;;;12.02;80.12;97095.97;4137214;28;20126;-74
2024/02/10 04:30:41;;;;;;;7.72;5.43;;;;;;;11.99;80.17;97099.13;4140014;28;20022;-73
2024/02/10 04:32:46;;;;;;;10.65;6.68;;;;;;;11.88;80.75;97093.66;4137038;28;20366;-74
2024/02/10 04:34:46;;;;;;;10.70;7.32;;;;;;;11.87;80.52;97098.22;4130103;28;20031;-74
2024/02/10 04:36:49;;;;;;;9.90;7.22;;;;;;;11.79;81.20;97093.97;4130369;28;20024;-75
2024/02/10 04:38:50;;;;;;;8.38;6.97;;;;;;;11.83;80.66;97105.03;4128635;28;20037;-75
2024/02/10 04:40:51;;;;;;;10.18;7.55;;;;;;;11.84;80.71;97099.50;4130217;28;20026;-75
2024/02/10 04:42:54;;;;;;;8.48;6.40;;;;;;;11.81;80.45;97105.28;4128750;28;20549;-74
2024/02/10 04:44:58;;;;;;;12.90;8.45;;;;;;;11.64;81.62;97112.28;4130167;28;20030;-74
2024/02/10 04:46:59;;;;;;;10.20;7.80;;;;;;;11.58;81.63;97111.31;4130222;28;20026;-74
2024/02/10 04:49:02;;;;;;;9.40;7.28;;;;;;;11.72;80.99;97117.31;4129618;28;20041;-75
2024/02/10 04:51:02;;;;;;;8.98;6.75;;;;;;;11.77;80.61;97108.63;4128919;28;20034;-74
2024/02/10 04:53:06;;;;;;;10.40;7.55;;;;;;;11.46;81.95;97118.44;4130106;28;20084;-75
2024/02/10 04:55:07;;;;;;;10.30;7.95;;;;;;;11.48;81.67;97122.50;4129824;28;20054;-75
2024/02/10 04:57:07;;;;;;;8.70;6.60;;;;;;;11.64;80.82;97126.47;4130182;28;20022;-75
2024/02/10 04:59:08;;;;;;;10.82;7.97;;;;;;;11.52;81.11;97126.41;4130052;28;20031;-74
2024/02/10 05:01:10;;;;;;;10.57;7.72;;;;;;;11.53;81.25;97132.56;4130220;28;20056;-75
2024/02/10 05:03:10;;;;;;;11.02;7.97;;;;;;;11.48;81.32;97125.19;4130000;28;20034;-74
2024/02/10 05:05:12;;;;;;;12.98;9.52;;;;;;;11.35;81.70;97128.81;4130479;28;20110;-75
2024/02/10 05:07:15;;;;;;;11.50;8.35;;;;;;;11.33;81.92;97130.94;4130195;28;20034;-75
2024/02/10 05:09:15;;;;;;;12.63;8.95;;;;;;;11.30;81.90;97128.69;4129566;28;20080;-75
2024/02/10 05:11:16;;;;;;;10.65;7.97;;;;;;;11.23;82.35;97135.97;4130419;28;20027;-74
2024/02/10 05:13:16;;;;;;;11.07;8.25;;;;;;;11.10;82.95;97133.38;4130275;28;20034;-75
2024/02/10 05:15:19;;;;;;;12.20;8.60;;;;;;;11.04;82.95;97145.78;4128507;28;20030;-75
2024/02/10 05:17:20;;;;;;;11.50;8.90;;;;;;;10.90;83.55;97129.03;4132296;28;20080;-74
2024/02/10 05:19:21;;;;;;;11.60;8.43;;;;;;;10.93;83.06;97136.63;4131334;28;20041;-74
2024/02/10 05:21:24;;;;;;;14.40;9.40;;;;;;;10.85;83.58;97129.69;4132862;28;20030;-74
2024/02/10 05:23:24;;;;;;;10.13;8.05;;;;;;;10.94;83.28;97127.56;4132908;28;20270;-74
2024/02/10 05:25:27;;;;;;;10.57;7.47;;;;;;;10.96;82.98;97125.47;4132807;28;20325;-74
2024/02/10 05:27:27;;;;;;;10.25;7.63;;;;;;;11.02;82.86;97121.09;4133176;28;20026;-74
2024/02/10 05:29:28;;;;;;;10.48;7.22;;;;;;;11.00;82.99;97121.34;4132947;28;20057;-75
2024/02/10 05:31:28;;;;;;;8.38;5.97;;;;;;;10.99;83.01;97121.56;4133026;28;20030;-74
2024/02/10 05:33:29;;;;;;;9.93;7.22;;;;;;;10.91;83.20;97128.00;4132965;28;20026;-74
2024/02/10 05:35:29;;;;;;;10.88;6.97;;;;;;;10.89;83.29;97127.38;4133808;28;20084;-74
2024/02/10 05:37:38;;;;;;;10.27;7.00;;;;;;;10.83;83.40;97125.59;4132899;28;20018;-74
2024/02/10 05:39:38;;;;;;;9.60;7.20;;;;;;;10.81;83.36;97138.34;4132539;28;20048;-74
2024/02/10 05:41:39;;;;;;;8.57;6.82;;;;;;;10.89;83.18;97132.72;4133139;28;20076;-74
2024/02/10 05:43:39;;;;;;;9.48;7.07;;;;;;;10.86;83.12;97125.19;4132290;28;20427;-74
2024/02/10 05:45:40;;;;;;;7.88;5.93;;;;;;;11.01;82.25;97125.66;4132985;28;20034;-73
2024/02/10 05:47:40;;;;;;;8.10;5.93;;;;;;;11.03;82.07;97131.59;4132720;28;20036;-74
2024/02/10 05:49:41;;;;;;;6.93;5.20;;;;;;;11.16;81.05;97121.81;4132833;28;20026;-73
2024/02/10 05:51:41;;;;;;;7.22;5.03;;;;;;;11.22;80.82;97118.28;4133221;28;20064;-74
2024/02/10 05:53:45;;;;;;;6.72;4.80;;;;;;;11.22;80.71;97116.41;4141028;28;20124;-74
2024/02/10 05:55:46;;;;;;;7.63;4.88;;;;;;;11.26;80.67;97119.44;4140480;28;20030;-74
2024/02/10 05:57:47;;;;;;;7.28;5.25;;;;;;;11.22;80.33;97111.06;4131234;28;20022;-73
2024/02/10 05:59:48;;;;;;;;;;;;;;;11.12;80.28;97118.75;4131661;28;20029;-74
2024/02/10 06:01:48;;;;;;;10.25;6.28;;;;;;;10.97;81.23;97119.09;4132170;28;19917;-75
2024/02/10 06:03:54;;;;;;;10.23;6.85;;;;;;;10.70;81.96;97118.50;4132462;28;20121;-73
2024/02/10 06:05:55;;;;;;;9.70;6.85;;;;;;;10.61;82.01;97124.13;4132480;28;20034;-74
2024/02/10 06:07:56;;;;;;;10.95;7.38;;;;;;;10.47;82.16;97127.91;4132412;28;20889;-74
2024/02/10 06:09:56;;;;;;;;;;;;;;;10.29;82.17;97136.63;4131937;28;20092;-74
2024/02/10 06:11:57;;;;;;;8.70;6.60;;;;;;;10.26;82.88;97145.84;4132610;28;20355;-74
2024/02/10 06:13:57;;;;;;;10.32;7.55;;;;;;;10.07;83.08;97138.75;4132449;28;20028;-74
2024/02/10 06:15:59;;;;;;;11.63;7.10;;;;;;;10.05;82.84;97136.31;4132399;28;20030;-74
2024/02/10 06:18:02;;;;;;;17.58;8.85;;;;;;;9.90;83.05;97138.44;4131983;28;20030;-74
2024/02/10 06:20:07;;;;;;;12.90;8.30;;;;;;;9.87;83.01;97146.88;4131362;28;20023;-74
2024/02/10 06:22:08;;;;;;;15.68;7.45;;;;;;;9.89;82.50;97147.47;4130824;28;20023;-75
2024/02/10 06:24:12;;;;;;;;;;;;;;;9.90;82.66;97152.59;4132674;28;20030;-74
2024/02/10 06:26:13;;;;;;;8.35;6.32;;;;;;;10.04;81.88;97145.34;4132176;28;19918;-74
2024/02/10 06:28:15;;;;;;;;;;;;;;;10.12;81.36;97144.31;4130908;28;20647;-73
2024/02/10 06:30:17;;;;;;;24.60;9.90;;;;;;;9.89;81.60;97140.28;4130680;28;19910;-74
2024/02/10 06:32:20;;;;;;;;;;;;;;;9.64;82.72;97151.66;4131297;28;20450;-75
2024/02/10 06:34:21;;;;;;;30.77;13.07;;;;;;;9.67;82.73;97137.09;4146692;28;20333;-74
2024/02/10 06:36:21;;;;;;;29.37;11.80;;;;;;;9.72;82.75;97142.63;4132448;28;20030;-74
2024/02/10 06:38:23;;;;;;;18.53;11.27;;;;;;;9.80;82.41;97129.03;4131104;28;20308;-74
2024/02/10 06:40:23;;;;;;;18.75;10.85;;;;;;;9.87;82.25;97137.00;4131956;28;20281;-75
2024/02/10 06:42:25;;;;;;;15.43;10.05;;;;;;;9.80;82.74;97144.22;4131764;28;20030;-75
2024/02/10 06:44:27;;;;;;;17.08;10.43;;;;;;;9.80;82.75;97150.38;4131517;28;20034;-75
2024/02/10 06:46:27;;;;;;;13.85;8.57;;;;;;;9.88;82.25;97145.84;4132476;28;20023;-74
2024/02/10 06:48:28;;;;;;;18.13;10.20;;;;;;;9.72;82.92;97155.97;4132509;28;20092;-74
2024/02/10 06:50:28;;;;;;;17.55;9.77;;;;;;;9.68;83.31;97162.72;4131572;28;20026;-74
2024/02/10 06:52:29;;;;;;;10.32;7.70;;;;;;;9.75;82.86;97162.72;4129981;28;20027;-75
2024/02/10 06:54:29;;;;;;;16.77;9.95;;;;;;;9.58;83.74;97162.34;4131652;28;20118;-74
2024/02/10 06:56:30;;;;;;;14.68;9.98;;;;;;;9.68;83.42;97165.41;4132038;28;20030;-74
2024/02/10 06:58:30;;;;;;;36.53;10.85;;;;;;;9.50;83.95;97174.03;4130101;28;20113;-74
2024/02/10 07:00:38;;;;;;;14.45;10.13;;;;;;;9.41;84.72;97169.94;4130073;28;20550;-75
2024/02/10 07:02:39;;;;;;;18.05;11.30;;;;;;;9.38;85.12;97171.19;4130517;28;20046;-74
2024/02/10 07:04:40;;;;;;;14.73;10.65;;;;;;;9.40;84.86;97165.69;4131587;28;20029;-74
2024/02/10 07:06:40;;;;;;;16.10;9.73;;;;;;;9.29;85.42;97170.63;4131480;28;20105;-75
2024/02/10 07:08:41;;;;;;;17.50;11.18;;;;;;;9.24;85.74;97167.72;4131606;28;20027;-74
2024/02/10 07:10:48;;;;;;;17.25;10.25;;;;;;;9.41;85.24;97169.94;4143188;28;20088;-74
2024/02/10 07:12:52;;;;;;;16.20;10.80;;;;;;;9.47;84.68;97172.63;4140985;28;20398;-74
2024/02/10 07:14:56;;;;;;;15.23;11.10;;;;;;;9.54;84.47;97169.13;4131626;28;20475;-75
2024/02/10 07:16:57;;;;;;;15.82;11.23;;;;;;;9.57;84.46;97166.03;4131629;28;20471;-73
2024/02/10 07:18:59;;;;;;;16.17;10.65;;;;;;;9.64;84.28;97167.66;4132315;28;20121;-75
2024/02/10 07:20:59;;;;;;;18.35;12.23;;;;;;;9.75;84.11;97168.06;4131553;28;20117;-74
2024/02/10 07:23:03;;;;;;;16.30;11.20;;;;;;;9.88;83.67;97159.97;4134281;28;20069;-74
2024/02/10 07:25:07;;;;;;;15.63;11.38;;;;;;;9.97;83.52;97157.91;4158719;28;20243;-75
2024/02/10 07:27:08;;;;;;;16.10;9.75;;;;;;;10.11;82.95;97156.81;4137443;28;20487;-74
2024/02/10 07:29:11;;;;;;;13.35;9.13;;;;;;;10.17;82.46;97157.81;4131677;28;20050;-74
2024/02/10 07:31:12;;;;;;;16.33;9.18;;;;;;;10.18;82.16;97156.78;4132324;28;20053;-74
2024/02/10 07:33:13;;;;;;;15.98;10.07;;;;;;;10.17;82.17;97154.34;4129640;28;20240;-74
2024/02/10 07:35:14;;;;;;;;;;;;;;;9.94;82.26;97153.00;4131392;28;20054;-75
2024/02/10 07:37:14;;;;;;;34.90;15.27;;;;;;;9.89;83.24;97152.81;4131303;28;20342;-74
2024/02/10 07:39:18;;;;;;;24.63;13.75;;;;;;;10.08;82.57;97153.75;4128510;28;20030;-74
2024/02/10 07:41:18;;;;;;;24.52;13.73;;;;;;;10.08;82.53;97159.94;4130917;28;20045;-76
2024/02/10 07:43:19;;;;;;;21.48;13.27;;;;;;;10.10;82.50;97152.53;4130625;28;20026;-74
2024/02/10 07:45:20;;;;;;;29.48;13.48;;;;;;;10.10;82.74;97151.69;4129477;28;20030;-76
2024/02/10 07:47:22;;;;;;;20.77;13.18;;;;;;;10.04;82.85;97156.03;4129196;28;20070;-76
2024/02/10 07:49:22;;;;;;;20.55;12.40;;;;;;;9.99;83.23;97154.00;4129873;28;20026;-76
2024/02/10 07:51:23;;;;;;;22.42;13.13;;;;;;;9.93;83.59;97162.84;4130835;28;20397;-77
2024/02/10 07:53:23;;;;;;;17.67;11.47;;;;;;;9.98;83.72;97162.22;4130972;28;20061;-74
2024/02/10 07:55:25;;;;;;;22.10;12.90;;;;;;;10.05;83.55;97157.66;4132644;28;20278;-74
2024/02/10 07:57:25;;;;;;;19.27;12.20;;;;;;;10.07;83.82;97160.94;4135182;28;20025;-76
2024/02/10 07:59:26;;;;;;;27.55;13.45;;;;;;;10.04;83.87;97156.03;4134503;28;20399;-75
2024/02/10 08:01:27;;;;;;;28.80;13.95;;;;;;;10.08;84.22;97156.41;4135669;28;20134;-73
2024/02/10 08:03:27;;;;;;;23.10;12.60;;;;;;;10.20;83.84;97148.59;4136737;28;20037;-77
2024/02/10 08:05:28;;;;;;;53.42;15.68;;;;;;;10.07;84.38;97155.63;4136336;28;20034;-74
2024/02/10 08:07:29;;;;;;;26.45;13.82;;;;;;;10.04;84.72;97148.03;4139545;28;20054;-73
2024/02/10 08:09:30;;;;;;;32.92;16.23;;;;;;;10.04;85.22;97147.22;4135951;28;20026;-76
2024/02/10 08:11:30;;;;;;;38.20;16.70;;;;;;;10.21;84.32;97150.19;4130423;28;20139;-75
2024/02/10 08:13:32;;;;;;;37.75;15.95;;;;;;;10.19;84.14;97147.75;4130509;28;20268;-74
2024/02/10 08:15:33;;;;;;;36.38;16.45;;;;;;;10.14;84.86;97145.72;4128956;28;20030;-74
2024/02/10 08:17:34;;;;;;;34.65;17.55;;;;;;;10.11;85.43;97146.13;4130999;28;20105;-74
2024/02/10 08:19:35;;;;;;;;;;;;;;;10.13;86.80;97138.75;4131227;28;20084;-74
2024/02/10 08:21:36;;;;;;;29.65;15.10;;;;;;;10.19;85.61;97136.25;4131339;28;20008;-73
2024/02/10 08:23:38;;;;;;;25.60;13.60;;;;;;;10.17;85.46;97139.13;4131348;28;20378;-74
2024/02/10 08:25:38;;;;;;;25.17;14.93;;;;;;;10.19;85.81;97146.94;4129811;28;20652;-75
2024/02/10 08:27:39;;;;;;;20.75;13.90;;;;;;;10.31;85.42;97142.53;4133937;28;20026;-75
2024/02/10 08:29:40;;;;;;;18.13;12.18;;;;;;;10.39;84.78;97141.50;4136094;28;20050;-75
2024/02/10 08:31:40;;;;;;;16.90;11.68;;;;;;;10.34;84.95;97139.47;4137021;28;20022;-74
2024/02/10 08:33:44;;;;;;;15.85;10.88;;;;;;;10.35;84.97;97129.56;4137643;28;20103;-74
2024/02/10 08:35:46;;;;;;;17.25;12.13;;;;;;;10.13;85.28;97130.72;4138109;28;20034;-74
2024/02/10 08:37:47;;;;;;;16.88;10.85;;;;;;;10.19;85.07;97131.72;4134470;28;20592;-74
2024/02/10 08:39:48;;;;;;;13.88;9.50;;;;;;;10.41;84.32;97132.25;4130312;28;20022;-74
2024/02/10 08:41:48;;;;;;;14.27;9.65;;;;;;;10.49;83.68;97130.34;4130532;28;20069;-75
2024/02/10 08:43:49;;;;;;;14.35;9.95;;;;;;;10.49;83.56;97133.84;4130434;28;20034;-74
2024/02/10 08:45:49;;;;;;;11.95;8.00;;;;;;;10.70;82.93;97126.53;4130561;28;20057;-75
2024/02/10 08:47:50;;;;;;;12.25;8.30;;;;;;;10.81;82.37;97122.31;4130498;28;20472;-75
2024/02/10 08:49:50;;;;;;;17.63;12.45;;;;;;;10.57;82.91;97117.56;4131734;28;20065;-75
2024/02/10 08:51:53;;;;;;;21.95;12.00;;;;;;;10.41;83.34;97113.56;4132361;28;20463;-74
2024/02/10 08:53:56;;;;;;;18.38;11.90;;;;;;;10.39;83.62;97110.28;4134261;28;20085;-74
2024/02/10 08:55:57;;;;;;;16.92;12.23;;;;;;;10.42;83.37;97115.19;4138996;28;20046;-74
2024/02/10 08:58:01;;;;;;;18.38;10.85;;;;;;;10.41;83.47;97105.53;4135282;28;20053;-75
2024/02/10 09:00:03;;;;;;;15.82;12.00;;;;;;;10.43;83.70;97100.00;4133731;28;20030;-74
2024/02/10 09:02:04;;;;;;;15.65;11.07;;;;;;;10.47;83.37;97087.03;4131830;28;20366;-75
2024/02/10 09:04:05;;;;;;;17.33;10.68;;;;;;;10.55;83.06;97089.44;4133282;28;20026;-75
2024/02/10 09:06:06;;;;;;;15.10;10.98;;;;;;;10.49;83.18;97085.78;4132867;28;20521;-74
2024/02/10 09:08:07;;;;;;;13.27;9.93;;;;;;;10.63;82.81;97083.03;4134532;28;20535;-75
2024/02/10 09:10:08;;;;;;;13.95;10.30;;;;;;;10.77;82.28;97082.66;4132156;28;20121;-74
2024/02/10 09:12:09;;;;;;;13.07;9.23;;;;;;;10.84;81.66;97071.13;4133531;28;20372;-75
2024/02/10 09:14:09;;;;;;;13.20;9.05;;;;;;;10.64;81.78;97088.13;4131901;28;20030;-75
2024/02/10 09:16:10;;;;;;;11.18;8.38;;;;;;;10.59;81.52;97087.94;4133046;28;20123;-75
2024/02/10 09:18:12;;;;;;;13.63;9.23;;;;;;;10.59;80.67;97082.59;4133010;28;20026;-74
2024/02/10 09:20:13;;;;;;;11.90;9.02;;;;;;;10.59;80.70;97082.59;4133449;28;20026;-74
2024/02/10 09:22:14;;;;;;;15.77;9.82;;;;;;;10.31;80.84;97094.47;4133040;28;20041;-74
2024/02/10 09:24:15;;;;;;;13.10;9.63;;;;;;;10.47;80.39;97090.50;4133255;28;20319;-74
2024/02/10 09:26:17;;;;;;;12.35;8.50;;;;;;;10.63;79.48;97099.03;4133180;28;20033;-75
2024/02/10 09:28:18;;;;;;;14.55;9.73;;;;;;;10.58;79.34;97100.50;4132414;28;20031;-74
2024/02/10 09:30:18;;;;;;;12.57;8.85;;;;;;;10.53;79.07;97094.16;4131959;28;20033;-75